Kona International At Keahole, HI

11:09 PM HST on January 16, 2017 (GMT -1000)
Kona International At Keahole | | Change Station
Active Advisory: Small Craft Advisory

Elev 46 ft 19.74 °N, 156.05 °W | Updated 16 minutes ago

Overcast
Overcast
74 °F
Feels Like 74 °F
N
4
Wind Variable Wind from East

Today
High -- | Low -- °F
--% Chance of Precip.
Yesterday
High -- | Low -- °F
Precip. -- in
Pressure 30.06 in
Visibility 10.0 miles
Clouds Overcast 3900 ft
Dew Point 65 °F
Humidity 73%
Rainfall 0.00 in
Snow Depth Not available.
7:01 AM 6:06 PM
Waning Gibbous, 74% visible
METAR PHKO 170853Z AUTO 10003KT 10SM OVC039 23/18 A3006 RMK AO2 SLP179 T02330183 50005 TSNO
Pressure 30.06 in
Visibility 10.0 miles
Clouds Overcast 3900 ft
Dew Point 65 °F
Humidity 73%
Rainfall 0.00 in
Snow Depth Not available.
7:01 AM 6:06 PM
Waning Gibbous, 74% visible
METAR PHKO 170853Z AUTO 10003KT 10SM OVC039 23/18 A3006 RMK AO2 SLP179 T02330183 50005 TSNO

Get Your Daily Forecast Email!

Thanks for signing up!

Be on the lookout for a verification email in your inbox.

You'll start receiving the daily forecast at 8 AM.

×

10-Day Weather Forecast

Almanac

Astronomy

Jan. 16, 2017 Rise Set
Actual Time
Civil Twilight
Nautical Twilight
Astronomical Twilight
Moon
Length of Visible Light
Length of Day
Tomorrow will be .
, % of the Moon is Illuminated

Today's Extremes

State Highs State Lows

Community

WunderPhotos

Upload Photos

1,962,540 photos uploaded!

WunderBlog® & News

Nearby

Air Quality

  Air Quality AQ Index Pollutant
Not available.

Snow Depth

Station Depth Elevation

Earthquake Activity

City Distance Mag. Time & Date
Minimum magnitude displayed is 2.5.

Coastal Water Temperatures

Place Temperature

Stations

Nearby Weather Stations

Station Location Temp. Windchill Dew Point Humidity Wind Precip. Elev Updated Type
                   

Watches & Warnings

Small Craft Advisory
Issued: 3:15 PM HST Jan. 16, 2017 – National Weather Service

... Small Craft Advisory remains in effect until 6 PM HST
Tuesday...

* winds... east 15 to 25 knots.

Precautionary/preparedness actions...

A Small Craft Advisory means that wind speeds of 25 to 33 knots
and/or seas 10 feet or greater are expected to produce conditions
hazardous to small craft. Inexperienced mariners... especially
those operating smaller vessels... should avoid navigating in
these conditions.